sensor_id;sensor_type;location;lat;lon;timestamp;P1;durP1;ratioP1;P2;durP2;ratioP2
23838;SDS011;12100;44.384;20.272;2022-12-16T00:02:01;3.20;;;2.35;;
23838;SDS011;12100;44.384;20.272;2022-12-16T00:04:27;3.83;;;2.30;;
23838;SDS011;12100;44.384;20.272;2022-12-16T00:06:53;4.78;;;2.83;;
23838;SDS011;12100;44.384;20.272;2022-12-16T00:09:18;4.82;;;2.65;;
23838;SDS011;12100;44.384;20.272;2022-12-16T00:11:44;5.40;;;3.15;;
23838;SDS011;12100;44.384;20.272;2022-12-16T00:14:10;4.90;;;2.33;;
23838;SDS011;12100;44.384;20.272;2022-12-16T00:16:36;6.25;;;2.83;;
23838;SDS011;12100;44.384;20.272;2022-12-16T00:19:02;3.33;;;2.63;;
23838;SDS011;12100;44.384;20.272;2022-12-16T00:21:27;5.82;;;3.55;;
23838;SDS011;12100;44.384;20.272;2022-12-16T00:23:54;3.58;;;2.65;;
23838;SDS011;12100;44.384;20.272;2022-12-16T00:26:20;4.43;;;2.72;;
23838;SDS011;12100;44.384;20.272;2022-12-16T00:28:46;3.30;;;2.40;;
23838;SDS011;12100;44.384;20.272;2022-12-16T00:31:12;3.80;;;2.25;;
23838;SDS011;12100;44.384;20.272;2022-12-16T00:33:38;4.38;;;2.40;;
23838;SDS011;12100;44.384;20.272;2022-12-16T00:36:04;4.15;;;2.80;;
23838;SDS011;12100;44.384;20.272;2022-12-16T00:38:30;5.03;;;2.47;;
23838;SDS011;12100;44.384;20.272;2022-12-16T00:40:56;2.60;;;2.30;;
23838;SDS011;12100;44.384;20.272;2022-12-16T00:43:21;2.83;;;2.35;;
23838;SDS011;12100;44.384;20.272;2022-12-16T00:45:47;3.85;;;2.30;;
23838;SDS011;12100;44.384;20.272;2022-12-16T00:48:13;4.25;;;2.85;;
23838;SDS011;12100;44.384;20.272;2022-12-16T00:50:40;3.30;;;2.50;;
23838;SDS011;12100;44.384;20.272;2022-12-16T00:53:05;3.28;;;2.30;;
23838;SDS011;12100;44.384;20.272;2022-12-16T00:55:31;2.33;;;1.90;;
23838;SDS011;12100;44.384;20.272;2022-12-16T00:57:57;2.40;;;2.17;;
23838;SDS011;12100;44.384;20.272;2022-12-16T01:00:23;5.38;;;2.92;;
23838;SDS011;12100;44.384;20.272;2022-12-16T01:02:49;7.38;;;2.85;;
23838;SDS011;12100;44.384;20.272;2022-12-16T01:05:17;2.38;;;2.03;;
23838;SDS011;12100;44.384;20.272;2022-12-16T01:07:45;3.00;;;2.10;;
23838;SDS011;12100;44.384;20.272;2022-12-16T01:10:11;5.53;;;2.97;;
23838;SDS011;12100;44.384;20.272;2022-12-16T01:12:37;4.22;;;2.53;;
23838;SDS011;12100;44.384;20.272;2022-12-16T01:15:04;3.78;;;2.42;;
23838;SDS011;12100;44.384;20.272;2022-12-16T01:17:32;4.80;;;2.08;;
23838;SDS011;12100;44.384;20.272;2022-12-16T01:19:59;4.45;;;2.40;;
23838;SDS011;12100;44.384;20.272;2022-12-16T01:22:30;2.92;;;1.90;;
23838;SDS011;12100;44.384;20.272;2022-12-16T01:24:57;7.40;;;2.95;;
23838;SDS011;12100;44.384;20.272;2022-12-16T01:27:23;2.40;;;2.03;;
23838;SDS011;12100;44.384;20.272;2022-12-16T01:29:49;3.58;;;2.40;;
23838;SDS011;12100;44.384;20.272;2022-12-16T01:32:14;2.72;;;1.90;;
23838;SDS011;12100;44.384;20.272;2022-12-16T01:34:40;5.28;;;2.08;;
23838;SDS011;12100;44.384;20.272;2022-12-16T01:37:09;4.32;;;2.15;;
23838;SDS011;12100;44.384;20.272;2022-12-16T01:39:36;3.10;;;1.98;;
23838;SDS011;12100;44.384;20.272;2022-12-16T01:42:02;3.92;;;2.13;;
23838;SDS011;12100;44.384;20.272;2022-12-16T01:44:29;4.85;;;2.20;;
23838;SDS011;12100;44.384;20.272;2022-12-16T01:46:56;3.03;;;2.00;;
23838;SDS011;12100;44.384;20.272;2022-12-16T01:49:27;2.53;;;2.03;;
23838;SDS011;12100;44.384;20.272;2022-12-16T01:52:28;2.65;;;1.85;;
23838;SDS011;12100;44.384;20.272;2022-12-16T01:55:08;4.28;;;2.17;;
23838;SDS011;12100;44.384;20.272;2022-12-16T01:57:40;2.97;;;2.47;;
23838;SDS011;12100;44.384;20.272;2022-12-16T02:00:11;2.40;;;1.57;;
23838;SDS011;12100;44.384;20.272;2022-12-16T02:02:37;3.03;;;1.70;;
23838;SDS011;12100;44.384;20.272;2022-12-16T02:05:04;2.92;;;1.85;;
23838;SDS011;12100;44.384;20.272;2022-12-16T02:30:34;3.03;;;1.83;;
23838;SDS011;12100;44.384;20.272;2022-12-16T02:41:02;2.92;;;1.77;;
23838;SDS011;12100;44.384;20.272;2022-12-16T02:46:28;2.55;;;1.48;;
23838;SDS011;12100;44.384;20.272;2022-12-16T02:49:03;2.17;;;1.52;;
23838;SDS011;12100;44.384;20.272;2022-12-16T02:51:49;3.10;;;1.50;;
23838;SDS011;12100;44.384;20.272;2022-12-16T02:54:15;2.50;;;1.73;;
23838;SDS011;12100;44.384;20.272;2022-12-16T02:57:07;2.22;;;1.70;;
23838;SDS011;12100;44.384;20.272;2022-12-16T03:02:21;3.97;;;2.00;;
23838;SDS011;12100;44.384;20.272;2022-12-16T03:04:58;2.17;;;1.60;;
23838;SDS011;12100;44.384;20.272;2022-12-16T03:07:30;2.92;;;2.03;;
23838;SDS011;12100;44.384;20.272;2022-12-16T03:10:01;3.45;;;2.50;;
23838;SDS011;12100;44.384;20.272;2022-12-16T03:12:30;3.53;;;2.03;;
23838;SDS011;12100;44.384;20.272;2022-12-16T03:14:57;3.97;;;1.92;;
23838;SDS011;12100;44.384;20.272;2022-12-16T03:17:24;3.03;;;2.10;;
23838;SDS011;12100;44.384;20.272;2022-12-16T03:19:56;3.80;;;2.50;;
23838;SDS011;12100;44.384;20.272;2022-12-16T03:22:33;4.07;;;1.92;;
23838;SDS011;12100;44.384;20.272;2022-12-16T03:25:03;2.08;;;1.75;;
23838;SDS011;12100;44.384;20.272;2022-12-16T03:30:07;2.40;;;1.67;;
23838;SDS011;12100;44.384;20.272;2022-12-16T03:32:47;4.05;;;2.03;;
23838;SDS011;12100;44.384;20.272;2022-12-16T03:35:40;2.60;;;2.00;;
23838;SDS011;12100;44.384;20.272;2022-12-16T03:38:34;2.90;;;1.95;;
23838;SDS011;12100;44.384;20.272;2022-12-16T03:41:01;3.00;;;1.90;;
23838;SDS011;12100;44.384;20.272;2022-12-16T03:43:28;2.42;;;1.48;;
23838;SDS011;12100;44.384;20.272;2022-12-16T03:45:55;5.07;;;1.80;;
23838;SDS011;12100;44.384;20.272;2022-12-16T03:48:26;4.43;;;1.52;;
23838;SDS011;12100;44.384;20.272;2022-12-16T03:50:51;2.72;;;1.73;;
23838;SDS011;12100;44.384;20.272;2022-12-16T03:53:17;1.85;;;1.42;;
23838;SDS011;12100;44.384;20.272;2022-12-16T03:55:43;2.42;;;1.92;;
23838;SDS011;12100;44.384;20.272;2022-12-16T03:58:09;3.78;;;2.08;;
23838;SDS011;12100;44.384;20.272;2022-12-16T04:00:35;4.32;;;1.92;;
23838;SDS011;12100;44.384;20.272;2022-12-16T04:03:00;2.97;;;1.60;;
23838;SDS011;12100;44.384;20.272;2022-12-16T04:05:26;5.38;;;1.92;;
23838;SDS011;12100;44.384;20.272;2022-12-16T04:07:53;2.95;;;2.03;;
23838;SDS011;12100;44.384;20.272;2022-12-16T04:10:18;4.00;;;2.25;;
23838;SDS011;12100;44.384;20.272;2022-12-16T04:13:08;5.38;;;1.98;;
23838;SDS011;12100;44.384;20.272;2022-12-16T04:15:53;3.10;;;2.33;;
23838;SDS011;12100;44.384;20.272;2022-12-16T04:18:37;2.13;;;1.88;;
23838;SDS011;12100;44.384;20.272;2022-12-16T04:21:23;2.50;;;2.15;;
23838;SDS011;12100;44.384;20.272;2022-12-16T04:24:09;2.83;;;1.98;;
23838;SDS011;12100;44.384;20.272;2022-12-16T04:26:48;2.85;;;1.75;;
23838;SDS011;12100;44.384;20.272;2022-12-16T04:29:32;2.85;;;1.70;;
23838;SDS011;12100;44.384;20.272;2022-12-16T04:31:58;2.75;;;1.70;;
23838;SDS011;12100;44.384;20.272;2022-12-16T04:34:24;3.53;;;2.10;;
23838;SDS011;12100;44.384;20.272;2022-12-16T04:36:57;2.05;;;1.85;;
23838;SDS011;12100;44.384;20.272;2022-12-16T04:39:43;3.72;;;2.38;;
23838;SDS011;12100;44.384;20.272;2022-12-16T04:42:28;2.47;;;1.85;;
23838;SDS011;12100;44.384;20.272;2022-12-16T04:45:12;2.40;;;1.95;;
23838;SDS011;12100;44.384;20.272;2022-12-16T04:47:56;4.25;;;2.30;;
23838;SDS011;12100;44.384;20.272;2022-12-16T04:50:40;2.38;;;1.73;;
23838;SDS011;12100;44.384;20.272;2022-12-16T04:53:25;3.65;;;2.50;;
23838;SDS011;12100;44.384;20.272;2022-12-16T04:56:10;3.67;;;2.03;;
23838;SDS011;12100;44.384;20.272;2022-12-16T04:58:54;3.55;;;2.42;;
23838;SDS011;12100;44.384;20.272;2022-12-16T05:01:38;3.25;;;2.28;;
23838;SDS011;12100;44.384;20.272;2022-12-16T05:04:22;4.05;;;2.38;;
23838;SDS011;12100;44.384;20.272;2022-12-16T05:07:06;2.97;;;2.08;;
23838;SDS011;12100;44.384;20.272;2022-12-16T05:09:50;3.58;;;2.20;;
23838;SDS011;12100;44.384;20.272;2022-12-16T05:12:34;4.75;;;2.15;;
23838;SDS011;12100;44.384;20.272;2022-12-16T05:15:18;3.45;;;2.35;;
23838;SDS011;12100;44.384;20.272;2022-12-16T05:18:09;4.63;;;2.78;;
23838;SDS011;12100;44.384;20.272;2022-12-16T05:20:56;3.17;;;2.10;;
23838;SDS011;12100;44.384;20.272;2022-12-16T05:23:41;5.97;;;2.78;;
23838;SDS011;12100;44.384;20.272;2022-12-16T05:26:25;2.45;;;1.70;;
23838;SDS011;12100;44.384;20.272;2022-12-16T05:29:09;2.72;;;2.25;;
23838;SDS011;12100;44.384;20.272;2022-12-16T05:31:54;2.42;;;1.75;;
23838;SDS011;12100;44.384;20.272;2022-12-16T05:34:37;5.78;;;3.20;;
23838;SDS011;12100;44.384;20.272;2022-12-16T05:37:22;19.63;;;12.13;;
23838;SDS011;12100;44.384;20.272;2022-12-16T05:40:06;2.53;;;2.08;;
23838;SDS011;12100;44.384;20.272;2022-12-16T05:42:52;5.60;;;3.35;;
23838;SDS011;12100;44.384;20.272;2022-12-16T05:45:36;6.82;;;4.57;;
23838;SDS011;12100;44.384;20.272;2022-12-16T05:48:20;9.68;;;5.65;;
23838;SDS011;12100;44.384;20.272;2022-12-16T05:51:04;11.13;;;7.20;;
23838;SDS011;12100;44.384;20.272;2022-12-16T05:53:48;7.53;;;5.57;;
23838;SDS011;12100;44.384;20.272;2022-12-16T05:56:32;7.43;;;6.18;;
23838;SDS011;12100;44.384;20.272;2022-12-16T05:59:16;6.40;;;4.25;;
23838;SDS011;12100;44.384;20.272;2022-12-16T06:02:00;7.53;;;4.88;;
23838;SDS011;12100;44.384;20.272;2022-12-16T06:04:44;5.47;;;4.13;;
23838;SDS011;12100;44.384;20.272;2022-12-16T06:07:28;4.85;;;3.63;;
23838;SDS011;12100;44.384;20.272;2022-12-16T06:10:12;5.88;;;3.97;;
23838;SDS011;12100;44.384;20.272;2022-12-16T06:12:59;14.30;;;9.93;;
23838;SDS011;12100;44.384;20.272;2022-12-16T06:15:44;12.02;;;8.15;;
23838;SDS011;12100;44.384;20.272;2022-12-16T06:18:28;11.68;;;8.13;;
23838;SDS011;12100;44.384;20.272;2022-12-16T06:21:12;8.48;;;7.13;;
23838;SDS011;12100;44.384;20.272;2022-12-16T06:23:56;16.33;;;10.90;;
23838;SDS011;12100;44.384;20.272;2022-12-16T06:26:40;13.10;;;9.63;;
23838;SDS011;12100;44.384;20.272;2022-12-16T06:29:25;14.02;;;7.55;;
23838;SDS011;12100;44.384;20.272;2022-12-16T06:32:09;8.00;;;4.85;;
23838;SDS011;12100;44.384;20.272;2022-12-16T06:34:53;7.53;;;4.10;;
23838;SDS011;12100;44.384;20.272;2022-12-16T06:37:37;5.38;;;2.78;;
23838;SDS011;12100;44.384;20.272;2022-12-16T06:40:21;9.45;;;7.20;;
23838;SDS011;12100;44.384;20.272;2022-12-16T06:43:05;8.55;;;5.50;;
23838;SDS011;12100;44.384;20.272;2022-12-16T06:45:50;6.65;;;3.47;;
23838;SDS011;12100;44.384;20.272;2022-12-16T06:48:34;5.45;;;3.67;;
23838;SDS011;12100;44.384;20.272;2022-12-16T06:51:18;15.85;;;11.38;;
23838;SDS011;12100;44.384;20.272;2022-12-16T06:54:02;12.57;;;10.02;;
23838;SDS011;12100;44.384;20.272;2022-12-16T06:56:46;13.10;;;8.63;;
23838;SDS011;12100;44.384;20.272;2022-12-16T06:59:30;8.07;;;5.97;;
23838;SDS011;12100;44.384;20.272;2022-12-16T07:02:15;9.90;;;8.30;;
23838;SDS011;12100;44.384;20.272;2022-12-16T07:04:59;7.40;;;4.57;;
23838;SDS011;12100;44.384;20.272;2022-12-16T07:07:47;11.80;;;7.25;;
23838;SDS011;12100;44.384;20.272;2022-12-16T07:10:35;20.33;;;10.57;;
23838;SDS011;12100;44.384;20.272;2022-12-16T07:13:20;5.68;;;4.38;;
23838;SDS011;12100;44.384;20.272;2022-12-16T07:16:04;8.13;;;5.75;;
23838;SDS011;12100;44.384;20.272;2022-12-16T07:18:49;5.90;;;4.70;;
23838;SDS011;12100;44.384;20.272;2022-12-16T07:21:33;6.85;;;5.20;;
23838;SDS011;12100;44.384;20.272;2022-12-16T07:24:17;7.28;;;5.78;;
23838;SDS011;12100;44.384;20.272;2022-12-16T07:27:01;3.22;;;2.85;;
23838;SDS011;12100;44.384;20.272;2022-12-16T07:29:45;4.00;;;2.63;;
23838;SDS011;12100;44.384;20.272;2022-12-16T07:32:29;3.30;;;2.75;;
23838;SDS011;12100;44.384;20.272;2022-12-16T07:35:13;5.10;;;2.22;;
23838;SDS011;12100;44.384;20.272;2022-12-16T07:37:57;5.07;;;3.65;;
23838;SDS011;12100;44.384;20.272;2022-12-16T07:40:41;2.38;;;1.60;;
23838;SDS011;12100;44.384;20.272;2022-12-16T07:43:25;3.80;;;1.80;;
23838;SDS011;12100;44.384;20.272;2022-12-16T07:46:09;2.83;;;2.00;;
23838;SDS011;12100;44.384;20.272;2022-12-16T07:49:01;3.05;;;2.47;;
23838;SDS011;12100;44.384;20.272;2022-12-16T07:51:45;2.97;;;2.28;;
23838;SDS011;12100;44.384;20.272;2022-12-16T07:54:29;3.33;;;2.28;;
23838;SDS011;12100;44.384;20.272;2022-12-16T07:57:14;4.10;;;2.38;;
23838;SDS011;12100;44.384;20.272;2022-12-16T07:59:58;3.95;;;2.83;;
23838;SDS011;12100;44.384;20.272;2022-12-16T08:02:42;4.47;;;2.65;;
23838;SDS011;12100;44.384;20.272;2022-12-16T08:05:26;4.97;;;2.88;;
23838;SDS011;12100;44.384;20.272;2022-12-16T08:08:10;4.88;;;3.38;;
23838;SDS011;12100;44.384;20.272;2022-12-16T08:10:54;2.60;;;2.40;;
23838;SDS011;12100;44.384;20.272;2022-12-16T08:13:38;3.67;;;2.50;;
23838;SDS011;12100;44.384;20.272;2022-12-16T08:16:22;3.60;;;2.53;;
23838;SDS011;12100;44.384;20.272;2022-12-16T08:19:07;3.60;;;2.20;;
23838;SDS011;12100;44.384;20.272;2022-12-16T08:21:51;3.53;;;2.30;;
23838;SDS011;12100;44.384;20.272;2022-12-16T08:24:35;80.90;;;53.90;;
23838;SDS011;12100;44.384;20.272;2022-12-16T08:27:19;45.40;;;40.50;;
23838;SDS011;12100;44.384;20.272;2022-12-16T08:30:03;3.25;;;2.70;;
23838;SDS011;12100;44.384;20.272;2022-12-16T08:32:48;4.10;;;3.50;;
23838;SDS011;12100;44.384;20.272;2022-12-16T08:35:32;3.72;;;2.75;;
23838;SDS011;12100;44.384;20.272;2022-12-16T08:38:16;2.83;;;2.45;;
23838;SDS011;12100;44.384;20.272;2022-12-16T08:41:00;2.88;;;2.38;;
23838;SDS011;12100;44.384;20.272;2022-12-16T08:43:44;4.47;;;2.95;;
23838;SDS011;12100;44.384;20.272;2022-12-16T08:46:28;4.78;;;2.30;;
23838;SDS011;12100;44.384;20.272;2022-12-16T08:49:15;5.70;;;3.85;;
23838;SDS011;12100;44.384;20.272;2022-12-16T08:51:59;4.82;;;4.32;;
23838;SDS011;12100;44.384;20.272;2022-12-16T08:54:43;4.68;;;3.70;;
23838;SDS011;12100;44.384;20.272;2022-12-16T08:57:27;6.30;;;5.22;;
23838;SDS011;12100;44.384;20.272;2022-12-16T09:00:11;10.20;;;5.35;;
23838;SDS011;12100;44.384;20.272;2022-12-16T09:02:56;4.80;;;3.17;;
23838;SDS011;12100;44.384;20.272;2022-12-16T09:05:41;7.43;;;4.47;;
23838;SDS011;12100;44.384;20.272;2022-12-16T09:08:25;10.77;;;7.57;;
23838;SDS011;12100;44.384;20.272;2022-12-16T09:11:10;12.55;;;7.30;;
23838;SDS011;12100;44.384;20.272;2022-12-16T09:13:54;8.38;;;5.82;;
23838;SDS011;12100;44.384;20.272;2022-12-16T09:16:38;7.13;;;4.38;;
23838;SDS011;12100;44.384;20.272;2022-12-16T09:19:22;4.88;;;3.88;;
23838;SDS011;12100;44.384;20.272;2022-12-16T09:22:07;5.63;;;3.15;;
23838;SDS011;12100;44.384;20.272;2022-12-16T09:24:51;6.00;;;3.50;;
23838;SDS011;12100;44.384;20.272;2022-12-16T09:27:35;4.25;;;3.20;;
23838;SDS011;12100;44.384;20.272;2022-12-16T09:30:19;4.97;;;2.92;;
23838;SDS011;12100;44.384;20.272;2022-12-16T09:33:03;3.67;;;2.75;;
23838;SDS011;12100;44.384;20.272;2022-12-16T09:35:47;5.60;;;3.63;;
23838;SDS011;12100;44.384;20.272;2022-12-16T09:38:31;4.57;;;3.10;;
23838;SDS011;12100;44.384;20.272;2022-12-16T09:50:31;4.35;;;3.08;;
23838;SDS011;12100;44.384;20.272;2022-12-16T09:53:19;6.78;;;3.60;;
23838;SDS011;12100;44.384;20.272;2022-12-16T09:56:06;4.35;;;3.80;;
23838;SDS011;12100;44.384;20.272;2022-12-16T09:59:00;4.45;;;3.13;;
23838;SDS011;12100;44.384;20.272;2022-12-16T10:01:47;5.97;;;3.10;;
23838;SDS011;12100;44.384;20.272;2022-12-16T10:04:33;5.57;;;3.55;;
23838;SDS011;12100;44.384;20.272;2022-12-16T10:07:18;5.38;;;3.28;;
23838;SDS011;12100;44.384;20.272;2022-12-16T10:15:47;6.75;;;3.95;;
23838;SDS011;12100;44.384;20.272;2022-12-16T10:18:54;8.35;;;4.10;;
23838;SDS011;12100;44.384;20.272;2022-12-16T10:21:57;8.48;;;3.97;;
23838;SDS011;12100;44.384;20.272;2022-12-16T10:24:56;4.15;;;3.50;;
23838;SDS011;12100;44.384;20.272;2022-12-16T10:28:23;5.88;;;3.75;;
23838;SDS011;12100;44.384;20.272;2022-12-16T10:31:30;5.85;;;3.55;;
23838;SDS011;12100;44.384;20.272;2022-12-16T10:34:20;5.60;;;3.28;;
23838;SDS011;12100;44.384;20.272;2022-12-16T10:40:26;5.25;;;2.88;;
23838;SDS011;12100;44.384;20.272;2022-12-16T10:43:21;4.40;;;3.25;;
23838;SDS011;12100;44.384;20.272;2022-12-16T10:46:19;5.90;;;3.40;;
23838;SDS011;12100;44.384;20.272;2022-12-16T10:49:12;6.80;;;3.38;;
23838;SDS011;12100;44.384;20.272;2022-12-16T10:51:59;6.50;;;3.97;;
23838;SDS011;12100;44.384;20.272;2022-12-16T10:54:45;186.20;;;21.08;;
23838;SDS011;12100;44.384;20.272;2022-12-16T11:00:38;6.55;;;4.70;;
23838;SDS011;12100;44.384;20.272;2022-12-16T11:03:30;7.03;;;3.78;;
23838;SDS011;12100;44.384;20.272;2022-12-16T11:06:18;6.20;;;4.40;;
23838;SDS011;12100;44.384;20.272;2022-12-16T11:15:21;5.35;;;4.03;;
23838;SDS011;12100;44.384;20.272;2022-12-16T11:18:19;5.32;;;4.18;;
23838;SDS011;12100;44.384;20.272;2022-12-16T11:24:16;6.40;;;4.82;;
23838;SDS011;12100;44.384;20.272;2022-12-16T11:27:01;5.63;;;3.47;;
23838;SDS011;12100;44.384;20.272;2022-12-16T11:29:59;6.40;;;3.20;;
23838;SDS011;12100;44.384;20.272;2022-12-16T11:32:47;5.07;;;2.95;;
23838;SDS011;12100;44.384;20.272;2022-12-16T11:35:38;8.50;;;3.78;;
23838;SDS011;12100;44.384;20.272;2022-12-16T11:38:38;4.50;;;3.03;;
23838;SDS011;12100;44.384;20.272;2022-12-16T11:41:26;9.60;;;4.75;;
23838;SDS011;12100;44.384;20.272;2022-12-16T11:44:31;9.90;;;6.38;;
23838;SDS011;12100;44.384;20.272;2022-12-16T11:50:25;6.43;;;4.22;;
23838;SDS011;12100;44.384;20.272;2022-12-16T11:53:31;12.02;;;7.90;;
23838;SDS011;12100;44.384;20.272;2022-12-16T11:56:41;6.22;;;4.97;;
23838;SDS011;12100;44.384;20.272;2022-12-16T12:05:22;8.52;;;3.72;;
23838;SDS011;12100;44.384;20.272;2022-12-16T12:08:24;4.90;;;4.32;;
23838;SDS011;12100;44.384;20.272;2022-12-16T12:11:43;5.93;;;4.30;;
23838;SDS011;12100;44.384;20.272;2022-12-16T12:14:41;27.02;;;17.77;;
23838;SDS011;12100;44.384;20.272;2022-12-16T12:17:39;16.20;;;9.25;;
23838;SDS011;12100;44.384;20.272;2022-12-16T12:23:30;7.25;;;4.28;;
23838;SDS011;12100;44.384;20.272;2022-12-16T12:26:22;5.68;;;4.28;;
23838;SDS011;12100;44.384;20.272;2022-12-16T12:41:06;7.90;;;4.82;;
23838;SDS011;12100;44.384;20.272;2022-12-16T12:55:55;7.00;;;5.50;;
23838;SDS011;12100;44.384;20.272;2022-12-16T12:58:46;6.50;;;4.55;;
23838;SDS011;12100;44.384;20.272;2022-12-16T13:01:33;5.95;;;3.95;;
23838;SDS011;12100;44.384;20.272;2022-12-16T13:04:20;8.13;;;4.40;;
23838;SDS011;12100;44.384;20.272;2022-12-16T13:07:05;107.25;;;70.80;;
23838;SDS011;12100;44.384;20.272;2022-12-16T13:10:10;22.02;;;15.55;;
23838;SDS011;12100;44.384;20.272;2022-12-16T13:15:58;9.32;;;7.72;;
23838;SDS011;12100;44.384;20.272;2022-12-16T13:18:43;7.60;;;6.20;;
23838;SDS011;12100;44.384;20.272;2022-12-16T13:27:29;8.98;;;7.45;;
23838;SDS011;12100;44.384;20.272;2022-12-16T13:30:32;7.00;;;5.55;;
23838;SDS011;12100;44.384;20.272;2022-12-16T13:33:20;7.22;;;4.80;;
23838;SDS011;12100;44.384;20.272;2022-12-16T13:36:07;12.52;;;8.73;;
23838;SDS011;12100;44.384;20.272;2022-12-16T13:38:53;12.77;;;5.38;;
23838;SDS011;12100;44.384;20.272;2022-12-16T13:48:15;8.95;;;6.00;;
23838;SDS011;12100;44.384;20.272;2022-12-16T13:53:25;8.77;;;5.50;;
23838;SDS011;12100;44.384;20.272;2022-12-16T13:56:44;8.10;;;4.38;;
23838;SDS011;12100;44.384;20.272;2022-12-16T13:59:31;6.30;;;4.72;;
23838;SDS011;12100;44.384;20.272;2022-12-16T14:05:22;8.48;;;5.25;;
23838;SDS011;12100;44.384;20.272;2022-12-16T14:08:12;8.68;;;5.82;;
23838;SDS011;12100;44.384;20.272;2022-12-16T14:11:00;8.50;;;4.00;;
23838;SDS011;12100;44.384;20.272;2022-12-16T14:14:08;6.35;;;4.65;;
23838;SDS011;12100;44.384;20.272;2022-12-16T14:16:57;12.20;;;5.18;;
23838;SDS011;12100;44.384;20.272;2022-12-16T14:25:21;9.70;;;6.13;;
23838;SDS011;12100;44.384;20.272;2022-12-16T14:31:26;6.75;;;3.85;;
23838;SDS011;12100;44.384;20.272;2022-12-16T14:34:14;5.78;;;4.05;;
23838;SDS011;12100;44.384;20.272;2022-12-16T14:40:23;7.97;;;3.35;;
23838;SDS011;12100;44.384;20.272;2022-12-16T14:43:12;7.60;;;4.45;;
23838;SDS011;12100;44.384;20.272;2022-12-16T14:49:28;5.00;;;3.28;;
23838;SDS011;12100;44.384;20.272;2022-12-16T14:52:22;8.63;;;5.00;;
23838;SDS011;12100;44.384;20.272;2022-12-16T14:58:02;3.88;;;2.92;;
23838;SDS011;12100;44.384;20.272;2022-12-16T15:00:48;6.22;;;3.22;;
23838;SDS011;12100;44.384;20.272;2022-12-16T15:03:37;6.40;;;4.20;;
23838;SDS011;12100;44.384;20.272;2022-12-16T15:06:34;7.38;;;4.45;;
23838;SDS011;12100;44.384;20.272;2022-12-16T15:12:24;12.95;;;7.10;;
23838;SDS011;12100;44.384;20.272;2022-12-16T15:15:29;5.07;;;3.40;;
23838;SDS011;12100;44.384;20.272;2022-12-16T15:18:21;12.48;;;10.52;;
23838;SDS011;12100;44.384;20.272;2022-12-16T15:21:15;7.97;;;3.90;;
23838;SDS011;12100;44.384;20.272;2022-12-16T15:24:00;5.60;;;3.83;;
23838;SDS011;12100;44.384;20.272;2022-12-16T15:26:44;11.00;;;6.65;;
23838;SDS011;12100;44.384;20.272;2022-12-16T15:29:37;7.50;;;5.15;;
23838;SDS011;12100;44.384;20.272;2022-12-16T15:35:24;8.77;;;4.30;;
23838;SDS011;12100;44.384;20.272;2022-12-16T15:38:24;7.13;;;4.47;;
23838;SDS011;12100;44.384;20.272;2022-12-16T15:44:15;11.50;;;7.22;;
23838;SDS011;12100;44.384;20.272;2022-12-16T15:47:01;7.70;;;4.97;;
23838;SDS011;12100;44.384;20.272;2022-12-16T15:49:46;7.75;;;4.07;;
23838;SDS011;12100;44.384;20.272;2022-12-16T15:52:33;5.20;;;3.15;;
23838;SDS011;12100;44.384;20.272;2022-12-16T15:55:23;5.25;;;3.67;;
23838;SDS011;12100;44.384;20.272;2022-12-16T15:58:23;5.20;;;3.78;;
23838;SDS011;12100;44.384;20.272;2022-12-16T16:01:16;3.15;;;2.47;;
23838;SDS011;12100;44.384;20.272;2022-12-16T16:04:27;2.65;;;2.13;;
23838;SDS011;12100;44.384;20.272;2022-12-16T16:13:01;4.75;;;3.10;;
23838;SDS011;12100;44.384;20.272;2022-12-16T16:15:45;11.77;;;9.73;;
23838;SDS011;12100;44.384;20.272;2022-12-16T16:18:30;5.28;;;3.72;;
23838;SDS011;12100;44.384;20.272;2022-12-16T16:21:14;16.25;;;13.88;;
23838;SDS011;12100;44.384;20.272;2022-12-16T16:23:58;5.40;;;4.72;;
23838;SDS011;12100;44.384;20.272;2022-12-16T16:26:43;4.20;;;3.05;;
23838;SDS011;12100;44.384;20.272;2022-12-16T16:29:28;5.18;;;4.65;;
23838;SDS011;12100;44.384;20.272;2022-12-16T16:32:12;4.22;;;3.20;;
23838;SDS011;12100;44.384;20.272;2022-12-16T16:34:56;10.82;;;5.18;;
23838;SDS011;12100;44.384;20.272;2022-12-16T16:37:40;4.18;;;3.33;;
23838;SDS011;12100;44.384;20.272;2022-12-16T16:40:39;4.22;;;3.03;;
23838;SDS011;12100;44.384;20.272;2022-12-16T16:43:25;28.35;;;18.30;;
23838;SDS011;12100;44.384;20.272;2022-12-16T16:49:00;6.38;;;4.78;;
23838;SDS011;12100;44.384;20.272;2022-12-16T16:51:44;6.43;;;4.50;;
23838;SDS011;12100;44.384;20.272;2022-12-16T16:54:28;7.07;;;4.40;;
23838;SDS011;12100;44.384;20.272;2022-12-16T16:57:12;6.25;;;4.80;;
23838;SDS011;12100;44.384;20.272;2022-12-16T16:59:56;4.82;;;4.40;;
23838;SDS011;12100;44.384;20.272;2022-12-16T17:02:40;6.53;;;3.53;;
23838;SDS011;12100;44.384;20.272;2022-12-16T17:05:24;5.00;;;3.17;;
23838;SDS011;12100;44.384;20.272;2022-12-16T17:08:08;3.55;;;2.53;;
23838;SDS011;12100;44.384;20.272;2022-12-16T17:10:53;4.55;;;2.85;;
23838;SDS011;12100;44.384;20.272;2022-12-16T17:13:37;7.30;;;3.47;;
23838;SDS011;12100;44.384;20.272;2022-12-16T17:16:21;20.30;;;11.52;;
23838;SDS011;12100;44.384;20.272;2022-12-16T17:19:05;21.65;;;14.02;;
23838;SDS011;12100;44.384;20.272;2022-12-16T17:21:49;18.13;;;10.60;;
23838;SDS011;12100;44.384;20.272;2022-12-16T17:24:33;37.88;;;28.88;;
23838;SDS011;12100;44.384;20.272;2022-12-16T17:27:19;25.60;;;15.73;;
23838;SDS011;12100;44.384;20.272;2022-12-16T17:30:18;30.60;;;19.67;;
23838;SDS011;12100;44.384;20.272;2022-12-16T17:33:05;31.75;;;20.48;;
23838;SDS011;12100;44.384;20.272;2022-12-16T17:35:50;19.98;;;14.68;;
23838;SDS011;12100;44.384;20.272;2022-12-16T17:38:38;38.65;;;28.35;;
23838;SDS011;12100;44.384;20.272;2022-12-16T17:41:25;21.58;;;14.55;;
23838;SDS011;12100;44.384;20.272;2022-12-16T17:44:11;47.08;;;29.55;;
23838;SDS011;12100;44.384;20.272;2022-12-16T17:46:55;50.53;;;30.67;;
23838;SDS011;12100;44.384;20.272;2022-12-16T17:49:40;64.32;;;41.00;;
23838;SDS011;12100;44.384;20.272;2022-12-16T17:52:24;34.10;;;22.38;;
23838;SDS011;12100;44.384;20.272;2022-12-16T17:55:08;57.15;;;37.88;;
23838;SDS011;12100;44.384;20.272;2022-12-16T17:57:53;53.88;;;37.75;;
23838;SDS011;12100;44.384;20.272;2022-12-16T18:00:37;38.05;;;26.63;;
23838;SDS011;12100;44.384;20.272;2022-12-16T18:03:21;25.75;;;18.33;;
23838;SDS011;12100;44.384;20.272;2022-12-16T18:06:06;11.05;;;8.20;;
23838;SDS011;12100;44.384;20.272;2022-12-16T18:08:50;45.60;;;28.50;;
23838;SDS011;12100;44.384;20.272;2022-12-16T18:11:35;32.25;;;22.10;;
23838;SDS011;12100;44.384;20.272;2022-12-16T18:14:19;27.35;;;21.98;;
23838;SDS011;12100;44.384;20.272;2022-12-16T18:17:04;53.20;;;34.90;;
23838;SDS011;12100;44.384;20.272;2022-12-16T18:19:48;13.98;;;9.98;;
23838;SDS011;12100;44.384;20.272;2022-12-16T18:22:33;36.80;;;24.30;;
23838;SDS011;12100;44.384;20.272;2022-12-16T18:25:17;34.13;;;21.58;;
23838;SDS011;12100;44.384;20.272;2022-12-16T18:28:01;42.95;;;25.83;;
23838;SDS011;12100;44.384;20.272;2022-12-16T18:30:45;50.55;;;35.35;;
23838;SDS011;12100;44.384;20.272;2022-12-16T18:33:30;55.17;;;33.08;;
23838;SDS011;12100;44.384;20.272;2022-12-16T18:36:14;35.40;;;24.45;;
23838;SDS011;12100;44.384;20.272;2022-12-16T18:38:58;24.33;;;15.88;;
23838;SDS011;12100;44.384;20.272;2022-12-16T18:41:43;40.00;;;28.08;;
23838;SDS011;12100;44.384;20.272;2022-12-16T18:44:29;118.35;;;86.68;;
23838;SDS011;12100;44.384;20.272;2022-12-16T18:47:14;67.32;;;48.08;;